Time;durP1;ratioP1;P1;durP2;ratioP2;P2;SDS_P1;SDS_P2;PMS_P1;PMS_P2;Temp;Humidity;BMP_temperature;BMP_pressure;BME280_temperature;BME280_humidity;BME280_pressure;Samples;Min_cycle;Max_cycle;Signal;HPM_P1;HPM_P2
2023/09/25 00:00:32;;;;;;;4.13;1.83;;;13.40;99.90;;;;;;5052023;28;20044;-78
2023/09/25 00:02:59;;;;;;;4.90;1.95;;;13.40;99.90;;;;;;5030620;28;20102;-79
2023/09/25 00:05:28;;;;;;;3.70;1.90;;;13.40;99.90;;;;;;5054821;28;20119;-78
2023/09/25 00:07:54;;;;;;;3.33;2.00;;;13.40;99.90;;;;;;5036996;28;20045;-78
2023/09/25 00:10:20;;;;;;;4.80;1.90;;;13.40;99.90;;;;;;5051552;28;20033;-78
2023/09/25 00:12:46;;;;;;;3.42;1.73;;;13.40;99.90;;;;;;5052710;28;20067;-78
2023/09/25 00:15:12;;;;;;;3.13;1.90;;;13.40;99.90;;;;;;5053624;28;20040;-78
2023/09/25 00:17:37;;;;;;;3.72;2.10;;;13.50;99.90;;;;;;5053758;28;20041;-79
2023/09/25 00:20:04;;;;;;;3.08;1.80;;;13.50;99.90;;;;;;5048410;28;20116;-79
2023/09/25 00:22:30;;;;;;;3.50;2.13;;;13.50;99.90;;;;;;5054017;28;20033;-79
2023/09/25 00:24:56;;;;;;;5.65;2.08;;;13.50;99.90;;;;;;5034885;28;20037;-79
2023/09/25 00:27:23;;;;;;;4.80;1.80;;;13.50;99.90;;;;;;5050849;28;20037;-79
2023/09/25 00:29:49;;;;;;;3.03;2.00;;;13.50;99.90;;;;;;5052232;28;20420;-79
2023/09/25 00:32:15;;;;;;;3.95;1.90;;;13.50;99.90;;;;;;5053394;28;20064;-79
2023/09/25 00:34:40;;;;;;;2.70;1.80;;;13.50;99.90;;;;;;5054812;28;20054;-79
2023/09/25 00:37:06;;;;;;;4.22;2.22;;;13.50;99.90;;;;;;5054145;28;20094;-78
2023/09/25 00:39:31;;;;;;;9.50;2.28;;;13.50;99.90;;;;;;5032740;28;20040;-79
2023/09/25 00:41:59;;;;;;;6.40;2.00;;;13.50;99.90;;;;;;5052758;28;20045;-79
2023/09/25 00:44:25;;;;;;;4.63;2.28;;;13.50;99.90;;;;;;5036459;28;20064;-78
2023/09/25 00:46:51;;;;;;;3.50;2.10;;;13.50;99.90;;;;;;5035002;28;20029;-79
2023/09/25 00:49:17;;;;;;;3.70;1.92;;;13.50;99.90;;;;;;5032460;28;20044;-79
2023/09/25 00:51:44;;;;;;;4.15;2.03;;;13.40;99.90;;;;;;5055256;28;20041;-78
2023/09/25 00:54:11;;;;;;;3.97;2.28;;;13.40;99.90;;;;;;5050541;28;20407;-78
2023/09/25 00:56:37;;;;;;;6.60;2.17;;;13.40;99.90;;;;;;5050285;28;20060;-79
2023/09/25 00:59:03;;;;;;;5.05;1.95;;;13.30;99.90;;;;;;5049529;28;20540;-79
2023/09/25 01:01:29;;;;;;;3.83;2.30;;;13.30;99.90;;;;;;5047542;28;20033;-79
2023/09/25 01:03:54;;;;;;;4.05;2.15;;;13.30;99.90;;;;;;5045908;28;20450;-79
2023/09/25 01:06:20;;;;;;;3.25;2.22;;;13.30;99.90;;;;;;5037629;28;20040;-79
2023/09/25 01:08:46;;;;;;;3.80;2.13;;;13.20;99.90;;;;;;5051261;28;20045;-78
2023/09/25 01:11:11;;;;;;;4.90;2.20;;;13.20;99.90;;;;;;5037559;28;20060;-78
2023/09/25 01:13:37;;;;;;;3.67;2.20;;;13.20;99.90;;;;;;5053017;28;20108;-80
2023/09/25 01:16:03;;;;;;;3.38;2.10;;;13.10;99.90;;;;;;5052496;28;20082;-79
2023/09/25 01:18:28;;;;;;;3.60;2.22;;;13.10;99.90;;;;;;5036668;28;20063;-79
2023/09/25 01:20:54;;;;;;;3.00;2.28;;;13.10;99.90;;;;;;5047650;28;20037;-79
2023/09/25 01:23:19;;;;;;;4.20;2.70;;;13.10;99.90;;;;;;5037316;28;20040;-79
2023/09/25 01:25:45;;;;;;;3.75;2.67;;;13.10;99.90;;;;;;5052354;28;20045;-78
2023/09/25 01:28:10;;;;;;;4.65;2.45;;;13.10;99.90;;;;;;5053616;28;20439;-78
2023/09/25 01:30:36;;;;;;;4.45;2.22;;;13.00;99.90;;;;;;5051962;28;20033;-78
2023/09/25 01:33:01;;;;;;;4.32;2.55;;;13.00;99.90;;;;;;5047108;28;20085;-78
2023/09/25 01:35:27;;;;;;;4.88;2.38;;;13.00;99.90;;;;;;5039365;28;20088;-79
2023/09/25 01:37:57;;;;;;;5.47;2.58;;;13.00;99.90;;;;;;5039548;28;20040;-79
2023/09/25 01:40:24;;;;;;;3.88;2.22;;;12.90;99.90;;;;;;5053394;28;20034;-78
2023/09/25 01:42:49;;;;;;;3.83;2.58;;;12.90;99.90;;;;;;5057292;28;20036;-78
2023/09/25 01:45:17;;;;;;;5.00;2.65;;;12.80;99.90;;;;;;5056051;28;20036;-78
2023/09/25 01:47:50;;;;;;;4.85;2.53;;;12.80;99.90;;;;;;5039567;28;20040;-79
2023/09/25 01:50:17;;;;;;;5.47;2.73;;;12.80;99.90;;;;;;5056990;28;20045;-79
2023/09/25 01:52:43;;;;;;;4.53;2.90;;;12.80;99.90;;;;;;5058280;28;20036;-79
2023/09/25 01:55:09;;;;;;;4.13;2.42;;;12.80;99.90;;;;;;5039604;28;20495;-79
2023/09/25 01:57:35;;;;;;;5.55;2.83;;;12.70;99.90;;;;;;5036639;28;20036;-79
2023/09/25 02:00:00;;;;;;;3.95;2.95;;;12.70;99.90;;;;;;5057783;28;20061;-79
2023/09/25 02:02:26;;;;;;;4.28;2.60;;;12.70;99.90;;;;;;5055111;28;20036;-78
2023/09/25 02:04:51;;;;;;;4.68;2.67;;;12.60;99.90;;;;;;5056359;28;20055;-79
2023/09/25 02:07:18;;;;;;;5.47;2.67;;;12.60;99.90;;;;;;5056466;28;20037;-79
2023/09/25 02:09:45;;;;;;;4.00;2.53;;;12.60;99.90;;;;;;5039087;28;20101;-79
2023/09/25 02:12:11;;;;;;;5.13;3.05;;;12.60;99.90;;;;;;5053892;28;20029;-78
2023/09/25 02:14:36;;;;;;;5.10;2.78;;;12.50;99.90;;;;;;5053955;28;20489;-80
2023/09/25 02:17:02;;;;;;;4.13;2.80;;;12.60;99.90;;;;;;5051468;28;20044;-79
2023/09/25 02:19:28;;;;;;;4.80;2.85;;;12.50;99.90;;;;;;5053338;28;20033;-79
2023/09/25 02:21:54;;;;;;;3.58;2.50;;;12.50;99.90;;;;;;5053735;28;20075;-78
2023/09/25 02:24:20;;;;;;;3.55;2.72;;;12.50;99.90;;;;;;5039596;28;20025;-79
2023/09/25 02:26:45;;;;;;;5.03;2.88;;;12.50;99.90;;;;;;5056200;28;20045;-79
2023/09/25 02:29:11;;;;;;;3.95;3.00;;;12.50;99.90;;;;;;5038136;28;20501;-79
2023/09/25 02:31:36;;;;;;;4.97;2.80;;;12.50;99.90;;;;;;5037214;28;20527;-79
2023/09/25 02:34:02;;;;;;;4.13;2.67;;;12.50;99.90;;;;;;5038214;28;20029;-78
2023/09/25 02:36:27;;;;;;;4.50;2.90;;;12.50;99.90;;;;;;5038461;28;20569;-78
2023/09/25 02:38:53;;;;;;;4.47;3.00;;;12.50;99.90;;;;;;5056436;28;20412;-78
2023/09/25 02:41:18;;;;;;;4.32;2.78;;;12.40;99.90;;;;;;5038491;28;20115;-79
2023/09/25 02:43:44;;;;;;;3.90;2.97;;;12.50;99.90;;;;;;5037279;28;20037;-79
2023/09/25 02:46:09;;;;;;;4.07;3.10;;;12.40;99.90;;;;;;5054081;28;20051;-78
2023/09/25 02:48:35;;;;;;;5.90;3.08;;;12.40;99.90;;;;;;5053333;28;20743;-78
2023/09/25 02:51:00;;;;;;;6.43;2.85;;;12.40;99.90;;;;;;5037294;28;20036;-79
2023/09/25 02:53:26;;;;;;;4.47;2.90;;;12.40;99.90;;;;;;5038681;28;20033;-79
2023/09/25 02:55:52;;;;;;;5.20;2.80;;;12.40;99.90;;;;;;5055776;28;20033;-79
2023/09/25 02:58:18;;;;;;;5.85;3.30;;;12.30;99.90;;;;;;5032531;28;20040;-78
2023/09/25 03:00:44;;;;;;;4.68;3.10;;;12.40;99.90;;;;;;5036816;28;20528;-79
2023/09/25 03:03:10;;;;;;;5.90;2.95;;;12.30;99.90;;;;;;5033070;28;20093;-78
2023/09/25 03:05:36;;;;;;;5.30;2.95;;;12.30;99.90;;;;;;5039211;28;20060;-79
2023/09/25 03:08:03;;;;;;;4.72;2.75;;;12.30;99.90;;;;;;5055799;28;20041;-79
2023/09/25 03:10:28;;;;;;;4.00;2.92;;;12.30;99.90;;;;;;5034221;28;20041;-79
2023/09/25 03:12:54;;;;;;;6.43;3.35;;;12.30;99.90;;;;;;5033959;28;20039;-79
2023/09/25 03:15:19;;;;;;;5.40;3.30;;;12.30;99.90;;;;;;5039372;28;20047;-78
2023/09/25 03:17:45;;;;;;;4.65;3.00;;;12.30;99.90;;;;;;5040054;28;20049;-79
2023/09/25 03:20:15;;;;;;;6.13;3.30;;;12.20;99.90;;;;;;5055741;28;20040;-78
2023/09/25 03:22:45;;;;;;;3.92;3.13;;;12.20;99.90;;;;;;5056434;28;20098;-79
2023/09/25 03:25:12;;;;;;;4.22;3.03;;;12.20;99.90;;;;;;5056728;28;20043;-79
2023/09/25 03:27:38;;;;;;;4.80;3.15;;;12.10;99.90;;;;;;5038958;28;20035;-80
2023/09/25 03:30:05;;;;;;;6.10;2.95;;;12.10;99.90;;;;;;5057519;28;20111;-80
2023/09/25 03:32:31;;;;;;;9.38;3.55;;;12.10;99.90;;;;;;5054575;28;20039;-79
2023/09/25 03:34:57;;;;;;;4.50;3.25;;;12.10;99.90;;;;;;5056461;28;20079;-79
2023/09/25 03:37:22;;;;;;;4.35;2.90;;;12.10;99.90;;;;;;5038100;28;20033;-79
2023/09/25 03:39:48;;;;;;;4.20;3.00;;;12.00;99.90;;;;;;5037966;28;20036;-79
2023/09/25 03:42:13;;;;;;;4.47;2.90;;;12.10;99.90;;;;;;5037516;28;20041;-79
2023/09/25 03:44:39;;;;;;;4.32;2.85;;;12.10;99.90;;;;;;5055783;28;20041;-79
2023/09/25 03:47:04;;;;;;;9.60;3.42;;;12.00;99.90;;;;;;5052510;28;20045;-79
2023/09/25 03:49:30;;;;;;;4.18;3.00;;;12.00;99.90;;;;;;5063847;28;20041;-79
2023/09/25 03:51:55;;;;;;;3.53;2.80;;;12.00;99.90;;;;;;5055645;28;20033;-79
2023/09/25 03:54:21;;;;;;;4.95;2.95;;;12.00;99.90;;;;;;5056308;28;20040;-79
2023/09/25 03:56:46;;;;;;;5.05;3.03;;;12.00;99.90;;;;;;5055737;28;20041;-79
2023/09/25 03:59:12;;;;;;;6.88;3.08;;;12.00;99.90;;;;;;5053791;28;20094;-79
2023/09/25 04:01:38;;;;;;;5.57;2.90;;;12.00;99.90;;;;;;5055390;28;20044;-79
2023/09/25 04:04:03;;;;;;;5.95;3.08;;;12.00;99.90;;;;;;5054001;28;20044;-79
2023/09/25 04:06:29;;;;;;;5.93;3.03;;;12.00;99.90;;;;;;5058538;28;20041;-79
2023/09/25 04:08:54;;;;;;;4.95;3.05;;;12.00;99.90;;;;;;5054006;28;20041;-79
2023/09/25 04:11:20;;;;;;;4.43;2.75;;;12.00;99.90;;;;;;5053717;28;20455;-78
2023/09/25 04:13:47;;;;;;;4.40;3.25;;;12.00;99.90;;;;;;5055039;28;20052;-79
2023/09/25 04:16:14;;;;;;;6.43;2.95;;;12.00;99.90;;;;;;5055738;28;20036;-79
2023/09/25 04:18:40;;;;;;;4.40;2.95;;;12.00;99.90;;;;;;5038626;28;20518;-79
2023/09/25 04:21:06;;;;;;;4.03;2.95;;;12.00;99.90;;;;;;5036910;28;20128;-79
2023/09/25 04:23:31;;;;;;;4.15;2.78;;;12.00;99.90;;;;;;5038595;28;20069;-78
2023/09/25 04:26:00;;;;;;;6.07;3.03;;;12.00;99.90;;;;;;5052680;28;20525;-79
2023/09/25 04:28:30;;;;;;;4.38;3.00;;;12.00;99.90;;;;;;5037802;28;20120;-80
2023/09/25 04:30:57;;;;;;;4.00;2.63;;;12.00;99.90;;;;;;5039108;28;20499;-78
2023/09/25 04:33:26;;;;;;;3.97;3.05;;;12.00;99.90;;;;;;5051681;28;20043;-79
2023/09/25 04:35:58;;;;;;;4.35;2.85;;;12.10;99.90;;;;;;5062033;28;20652;-79
2023/09/25 04:38:25;;;;;;;4.05;2.90;;;12.00;99.90;;;;;;5053449;28;20037;-78
2023/09/25 04:40:51;;;;;;;4.35;3.20;;;12.10;99.90;;;;;;5051787;28;20045;-79
2023/09/25 04:43:17;;;;;;;4.20;2.90;;;12.10;99.90;;;;;;5037066;28;20033;-79
2023/09/25 04:45:43;;;;;;;4.47;2.80;;;12.20;99.90;;;;;;5052843;28;20045;-79
2023/09/25 04:48:09;;;;;;;6.15;3.30;;;12.10;99.90;;;;;;5052811;28;20041;-79
2023/09/25 04:50:34;;;;;;;3.92;2.85;;;12.10;99.90;;;;;;5054101;28;20044;-79
2023/09/25 04:53:00;;;;;;;5.53;3.03;;;12.50;99.90;;;;;;5036574;28;20036;-79
2023/09/25 04:55:25;;;;;;;4.88;3.03;;;12.10;99.90;;;;;;5055135;28;20040;-79
2023/09/25 04:57:51;;;;;;;4.25;3.03;;;12.10;99.90;;;;;;5035156;28;20029;-79
2023/09/25 05:00:27;;;;;;;4.38;3.20;;;12.10;99.90;;;;;;5052899;28;20112;-79
2023/09/25 05:02:55;;;;;;;5.18;3.20;;;12.20;99.90;;;;;;5037489;28;20033;-79
2023/09/25 05:05:21;;;;;;;7.57;3.05;;;12.10;99.90;;;;;;5037889;28;20112;-79
2023/09/25 05:07:48;;;;;;;5.80;3.13;;;12.10;99.90;;;;;;5053989;28;20589;-79
2023/09/25 05:10:15;;;;;;;5.35;3.00;;;12.10;99.90;;;;;;5036220;28;20391;-79
2023/09/25 05:12:42;;;;;;;4.90;3.13;;;12.10;99.90;;;;;;5042651;28;20043;-79
2023/09/25 05:15:08;;;;;;;4.47;2.90;;;12.10;99.90;;;;;;5058621;28;20041;-79
2023/09/25 05:17:36;;;;;;;4.78;3.20;;;12.10;99.90;;;;;;5041049;28;20040;-79
2023/09/25 05:20:06;;;;;;;5.53;3.13;;;12.10;99.90;;;;;;5044006;28;20040;-79
2023/09/25 05:22:31;;;;;;;4.22;2.92;;;12.10;99.90;;;;;;5055759;28;20583;-79
2023/09/25 05:24:56;;;;;;;5.95;3.05;;;12.00;99.90;;;;;;5056451;28;20063;-79
2023/09/25 05:27:22;;;;;;;4.07;2.80;;;12.00;99.90;;;;;;5055845;28;20041;-79
2023/09/25 05:29:48;;;;;;;4.05;2.90;;;12.00;99.90;;;;;;5037738;28;20045;-79
2023/09/25 05:32:13;;;;;;;6.15;2.65;;;12.00;99.90;;;;;;5040841;28;20072;-79
2023/09/25 05:34:39;;;;;;;5.93;3.00;;;12.00;99.90;;;;;;5056182;28;20037;-79
2023/09/25 05:37:04;;;;;;;4.65;3.30;;;12.00;99.90;;;;;;5033480;28;20064;-78
2023/09/25 05:39:30;;;;;;;4.13;2.60;;;12.00;99.90;;;;;;5050456;28;20440;-79
2023/09/25 05:41:56;;;;;;;5.07;2.92;;;12.00;99.90;;;;;;5054821;28;20064;-79
2023/09/25 05:44:21;;;;;;;4.57;2.80;;;12.00;99.90;;;;;;5046510;28;20033;-79
2023/09/25 05:46:47;;;;;;;4.90;2.70;;;12.00;99.90;;;;;;5043590;28;20045;-79
2023/09/25 05:49:13;;;;;;;4.32;3.00;;;12.10;99.90;;;;;;5045243;28;20080;-79
2023/09/25 05:51:38;;;;;;;5.95;3.00;;;12.10;99.90;;;;;;5034649;28;20029;-78
2023/09/25 05:54:05;;;;;;;4.53;3.08;;;12.10;99.90;;;;;;5053624;28;20060;-79
2023/09/25 05:56:31;;;;;;;4.75;2.70;;;12.10;99.90;;;;;;5055665;28;20080;-79
2023/09/25 05:58:56;;;;;;;4.43;2.83;;;12.10;99.90;;;;;;5057828;28;20122;-79
2023/09/25 06:01:22;;;;;;;4.93;2.70;;;12.20;99.90;;;;;;5055655;28;20037;-79
2023/09/25 06:03:49;;;;;;;4.97;2.90;;;12.10;99.90;;;;;;5049192;28;20328;-80
2023/09/25 06:06:15;;;;;;;4.22;2.92;;;12.20;99.90;;;;;;5053612;28;20048;-79
2023/09/25 06:08:40;;;;;;;4.22;3.10;;;12.30;99.90;;;;;;5036430;28;20037;-79
2023/09/25 06:11:06;;;;;;;6.28;3.10;;;12.30;99.90;;;;;;5052057;28;20575;-79
2023/09/25 06:13:32;;;;;;;5.63;2.92;;;12.30;99.90;;;;;;5031375;28;20061;-79
2023/09/25 06:15:58;;;;;;;3.83;3.17;;;12.40;99.90;;;;;;5049149;28;20029;-79
2023/09/25 06:18:23;;;;;;;5.68;2.75;;;12.40;99.90;;;;;;5048923;28;20041;-79
2023/09/25 06:20:49;;;;;;;4.15;2.90;;;12.50;99.90;;;;;;5030057;28;20040;-80
2023/09/25 06:23:15;;;;;;;4.25;2.72;;;12.50;99.90;;;;;;5026940;28;20404;-78
2023/09/25 06:25:44;;;;;;;3.83;2.88;;;12.50;99.90;;;;;;5050174;28;20102;-79
2023/09/25 06:28:11;;;;;;;5.82;3.00;;;12.60;99.90;;;;;;5056436;28;20478;-79
2023/09/25 06:30:37;;;;;;;4.43;2.85;;;12.60;99.90;;;;;;5056854;28;20113;-78
2023/09/25 06:33:03;;;;;;;4.00;2.95;;;12.60;99.90;;;;;;5039084;28;20136;-78
2023/09/25 06:35:28;;;;;;;4.60;3.10;;;12.70;99.90;;;;;;5054184;28;20041;-79
2023/09/25 06:37:54;;;;;;;4.93;2.85;;;12.70;99.90;;;;;;5045940;28;20040;-78
2023/09/25 06:40:19;;;;;;;4.68;2.90;;;12.70;99.90;;;;;;5057167;28;20041;-79
2023/09/25 06:42:46;;;;;;;4.00;2.72;;;12.80;99.90;;;;;;5040920;28;20037;-79
2023/09/25 06:45:11;;;;;;;4.43;2.70;;;12.80;99.90;;;;;;5050542;28;20093;-79
2023/09/25 06:47:37;;;;;;;4.90;2.88;;;12.80;99.90;;;;;;5035268;28;20067;-79
2023/09/25 06:50:03;;;;;;;4.25;2.70;;;12.90;99.90;;;;;;5028924;28;20037;-79
2023/09/25 06:52:29;;;;;;;5.40;2.60;;;12.90;99.90;;;;;;5054030;28;20041;-79
2023/09/25 06:54:56;;;;;;;5.57;3.17;;;12.90;99.90;;;;;;5049166;28;20115;-78
2023/09/25 06:57:21;;;;;;;5.30;2.65;;;12.90;99.90;;;;;;5033809;28;20064;-79
2023/09/25 06:59:47;;;;;;;4.60;2.50;;;13.00;99.90;;;;;;5046539;28;20072;-79
2023/09/25 07:02:12;;;;;;;4.82;2.60;;;13.00;99.90;;;;;;5049226;28;20074;-79
2023/09/25 07:04:38;;;;;;;4.55;2.50;;;13.10;99.90;;;;;;5026300;28;20053;-81
2023/09/25 07:07:05;;;;;;;4.55;2.42;;;13.10;99.90;;;;;;5047360;28;20048;-80
2023/09/25 07:09:31;;;;;;;4.90;2.45;;;13.10;99.90;;;;;;5055878;28;20041;-80
2023/09/25 07:11:56;;;;;;;4.72;2.78;;;13.10;99.90;;;;;;5058987;28;20063;-79
2023/09/25 07:14:22;;;;;;;3.30;2.35;;;13.10;99.90;;;;;;5039475;28;20040;-80
2023/09/25 07:16:50;;;;;;;5.07;2.65;;;13.20;99.90;;;;;;5053131;28;20120;-80
2023/09/25 07:19:15;;;;;;;4.28;2.60;;;13.20;99.90;;;;;;5056108;28;20092;-80
2023/09/25 07:21:41;;;;;;;4.05;2.60;;;13.20;99.90;;;;;;5055437;28;20052;-80
2023/09/25 07:24:07;;;;;;;4.22;2.50;;;13.20;99.90;;;;;;5045310;28;20041;-79
2023/09/25 07:26:32;;;;;;;4.38;2.50;;;13.30;99.90;;;;;;5035348;28;20037;-79
2023/09/25 07:28:58;;;;;;;4.20;2.50;;;13.30;99.90;;;;;;5027563;28;20522;-79
2023/09/25 07:31:24;;;;;;;3.53;2.63;;;13.40;99.90;;;;;;5036632;28;20048;-79
2023/09/25 07:33:50;;;;;;;3.85;2.53;;;13.40;99.90;;;;;;5050035;28;20064;-79
2023/09/25 07:36:19;;;;;;;4.78;2.50;;;13.50;99.90;;;;;;5055795;28;20037;-79
2023/09/25 07:38:48;;;;;;;4.65;3.05;;;13.50;99.90;;;;;;5052759;28;20476;-78
2023/09/25 07:41:14;;;;;;;4.30;2.55;;;13.60;99.90;;;;;;5039843;28;20041;-79
2023/09/25 07:43:40;;;;;;;4.35;2.40;;;13.70;99.90;;;;;;5050129;28;20041;-77
2023/09/25 07:46:06;;;;;;;4.28;2.35;;;13.70;99.90;;;;;;5055852;28;20041;-79
2023/09/25 07:48:32;;;;;;;3.63;2.30;;;13.80;99.90;;;;;;5055603;28;20036;-79
2023/09/25 07:50:58;;;;;;;3.78;2.60;;;13.90;99.90;;;;;;5055753;28;20112;-80
2023/09/25 07:53:24;;;;;;;4.60;2.78;;;14.00;99.90;;;;;;5054059;28;20119;-79
2023/09/25 07:55:53;;;;;;;5.18;2.70;;;14.10;99.90;;;;;;5053408;28;20036;-79
2023/09/25 07:58:19;;;;;;;5.15;2.58;;;14.20;99.90;;;;;;5037393;28;20404;-79
2023/09/25 08:00:46;;;;;;;6.50;2.40;;;14.40;99.90;;;;;;5049440;28;20048;-79
2023/09/25 08:03:16;;;;;;;5.95;2.63;;;14.40;99.90;;;;;;5031079;28;20041;-79
2023/09/25 08:05:43;;;;;;;4.63;2.40;;;14.50;99.90;;;;;;5052857;28;20055;-79
2023/09/25 08:08:11;;;;;;;4.55;2.60;;;14.50;99.90;;;;;;5050754;28;20102;-79
2023/09/25 08:10:41;;;;;;;3.97;2.50;;;14.50;99.90;;;;;;5054407;28;20082;-79
2023/09/25 08:13:08;;;;;;;5.72;2.65;;;14.50;99.90;;;;;;5034941;28;20090;-80
2023/09/25 08:15:35;;;;;;;5.90;2.90;;;14.60;99.90;;;;;;5036285;28;20088;-79
2023/09/25 08:18:01;;;;;;;4.13;2.35;;;14.60;99.90;;;;;;5045498;28;20041;-78
2023/09/25 08:20:27;;;;;;;5.32;2.75;;;14.70;99.90;;;;;;5052954;28;20029;-79
2023/09/25 08:22:53;;;;;;;5.10;3.10;;;14.70;99.90;;;;;;5036434;28;20104;-80
2023/09/25 08:25:20;;;;;;;4.72;2.30;;;14.70;99.90;;;;;;5053867;28;20060;-80
2023/09/25 08:27:45;;;;;;;4.40;2.50;;;14.80;99.90;;;;;;5035109;28;20104;-80
2023/09/25 08:30:12;;;;;;;4.45;2.40;;;14.80;99.90;;;;;;5035991;28;20120;-79
2023/09/25 08:32:38;;;;;;;5.55;2.60;;;14.90;99.90;;;;;;5052424;28;20392;-79
2023/09/25 08:35:04;;;;;;;4.15;2.20;;;14.90;99.90;;;;;;5035106;28;20124;-79
2023/09/25 08:37:30;;;;;;;5.03;2.20;;;15.00;99.90;;;;;;5053641;28;20068;-80
2023/09/25 08:39:56;;;;;;;4.13;2.50;;;15.10;99.90;;;;;;5037599;28;20036;-79
2023/09/25 08:42:23;;;;;;;4.82;2.58;;;15.10;99.90;;;;;;5054460;28;20408;-80
2023/09/25 08:44:54;;;;;;;6.47;2.42;;;15.20;99.90;;;;;;5059626;28;20128;-80
2023/09/25 08:47:20;;;;;;;5.22;2.42;;;15.30;99.90;;;;;;5058579;28;20047;-80
2023/09/25 08:49:50;;;;;;;6.40;2.53;;;15.40;99.90;;;;;;5053863;28;20486;-80
2023/09/25 08:52:16;;;;;;;5.28;2.50;;;15.50;99.90;;;;;;5053433;28;20040;-79
2023/09/25 08:54:42;;;;;;;4.63;2.50;;;15.60;99.90;;;;;;5053994;28;20086;-79
2023/09/25 08:57:08;;;;;;;6.22;2.58;;;15.70;99.90;;;;;;5043287;28;20048;-79
2023/09/25 08:59:36;;;;;;;4.15;2.40;;;15.90;99.90;;;;;;5054478;28;20041;-79
2023/09/25 09:02:03;;;;;;;3.63;2.35;;;15.90;99.90;;;;;;5053158;28;20094;-80
2023/09/25 09:04:28;;;;;;;6.55;2.20;;;16.10;99.90;;;;;;5052991;28;20041;-79
2023/09/25 09:06:54;;;;;;;4.53;2.50;;;16.10;99.90;;;;;;5055177;28;20055;-79
2023/09/25 09:09:21;;;;;;;5.03;2.22;;;16.20;99.90;;;;;;5053710;28;20047;-79
2023/09/25 09:11:53;;;;;;;3.72;2.25;;;16.30;99.90;;;;;;5037671;28;20033;-78
2023/09/25 09:14:39;;;;;;;3.80;2.10;;;16.30;99.90;;;;;;5037131;28;20407;-79
2023/09/25 09:17:05;;;;;;;6.30;2.70;;;16.30;99.90;;;;;;5057425;28;20033;-79
2023/09/25 09:19:51;;;;;;;6.00;2.05;;;16.30;99.90;;;;;;5057043;28;20048;-79
2023/09/25 09:22:18;;;;;;;3.28;1.90;;;16.40;99.90;;;;;;5052475;28;20049;-79
2023/09/25 09:24:44;;;;;;;5.97;2.40;;;16.50;99.90;;;;;;5054058;28;20041;-79
2023/09/25 09:27:11;;;;;;;4.35;2.13;;;16.40;99.90;;;;;;5042157;28;20062;-79
2023/09/25 09:29:38;;;;;;;5.88;2.30;;;16.50;99.90;;;;;;5043463;28;20041;-79
2023/09/25 09:32:04;;;;;;;4.78;2.10;;;16.50;99.90;;;;;;5057001;28;20044;-79
2023/09/25 09:34:30;;;;;;;4.88;2.00;;;16.70;99.90;;;;;;5056191;28;20584;-79
2023/09/25 09:36:56;;;;;;;4.10;2.10;;;16.70;99.90;;;;;;5051167;28;20105;-78
2023/09/25 09:39:25;;;;;;;5.38;2.17;;;16.70;99.90;;;;;;5030272;28;20473;-80
2023/09/25 09:41:51;;;;;;;4.50;2.10;;;17.00;99.90;;;;;;5052766;28;20037;-80
2023/09/25 09:44:20;;;;;;;5.97;2.33;;;16.90;99.90;;;;;;5047915;28;20417;-80
2023/09/25 09:46:49;;;;;;;4.45;1.90;;;17.00;99.90;;;;;;5048574;28;20061;-80
2023/09/25 09:49:20;;;;;;;4.22;1.80;;;17.00;99.90;;;;;;5028397;28;20536;-80
2023/09/25 09:51:48;;;;;;;2.80;1.55;;;17.10;99.90;;;;;;5036645;28;20100;-80
2023/09/25 09:54:17;;;;;;;3.30;1.85;;;17.30;99.90;;;;;;5019360;28;20496;-80
2023/09/25 09:56:42;;;;;;;3.65;2.00;;;17.30;99.90;;;;;;5037379;28;20048;-80
2023/09/25 09:59:10;;;;;;;5.30;2.05;;;17.40;99.90;;;;;;5029916;28;20463;-81
2023/09/25 10:01:36;;;;;;;3.65;1.90;;;17.40;99.90;;;;;;5030421;28;20045;-80
2023/09/25 10:04:05;;;;;;;5.38;1.77;;;17.50;99.90;;;;;;5053023;28;20063;-80
2023/09/25 10:06:35;;;;;;;3.78;1.70;;;17.60;99.90;;;;;;5054325;28;20041;-80
2023/09/25 10:09:01;;;;;;;5.55;2.00;;;17.60;99.90;;;;;;5056088;28;20037;-80
2023/09/25 10:11:27;;;;;;;4.57;1.85;;;17.70;99.90;;;;;;5039014;28;20060;-81
2023/09/25 10:13:55;;;;;;;3.92;2.00;;;17.70;99.90;;;;;;5058657;28;20033;-80
2023/09/25 10:16:20;;;;;;;4.07;1.90;;;17.70;99.90;;;;;;5041408;28;20040;-80
2023/09/25 10:18:51;;;;;;;3.03;1.80;;;17.80;99.90;;;;;;5041941;28;20044;-79
2023/09/25 10:21:17;;;;;;;2.72;1.73;;;17.90;99.90;;;;;;5049335;28;20036;-81
2023/09/25 10:24:00;;;;;;;4.38;1.98;;;18.00;99.90;;;;;;5060803;28;20105;-80
2023/09/25 10:26:28;;;;;;;3.08;1.75;;;18.00;99.90;;;;;;5058577;28;20044;-80
2023/09/25 10:29:14;;;;;;;6.82;2.20;;;18.10;99.90;;;;;;5057635;28;20104;-79
2023/09/25 10:31:45;;;;;;;3.85;1.85;;;18.20;99.90;;;;;;5041934;28;20041;-81
2023/09/25 10:34:11;;;;;;;4.03;1.90;;;18.30;99.90;;;;;;5056387;28;20110;-80
2023/09/25 10:36:40;;;;;;;3.05;1.70;;;18.40;99.90;;;;;;5050013;28;20062;-80
2023/09/25 10:39:13;;;;;;;3.25;1.70;;;18.40;99.90;;;;;;5058619;28;20103;-81
2023/09/25 10:41:39;;;;;;;2.92;1.95;;;18.40;99.90;;;;;;5042417;28;20044;-81
2023/09/25 10:44:05;;;;;;;4.05;1.70;;;18.50;99.90;;;;;;5057449;28;20041;-80
2023/09/25 10:46:31;;;;;;;3.00;1.83;;;18.50;99.90;;;;;;5060308;28;20044;-80
2023/09/25 10:48:57;;;;;;;2.55;1.70;;;18.50;99.90;;;;;;5043431;28;20037;-81
2023/09/25 10:51:23;;;;;;;4.43;2.08;;;18.60;99.90;;;;;;5052026;28;20041;-81
2023/09/25 10:53:48;;;;;;;3.42;1.70;;;18.80;99.90;;;;;;5056502;28;20033;-80
2023/09/25 10:56:15;;;;;;;4.90;2.15;;;18.80;99.90;;;;;;5066870;28;20177;-80
2023/09/25 10:58:41;;;;;;;2.92;1.63;;;18.80;99.90;;;;;;5059493;28;20062;-81
2023/09/25 11:01:07;;;;;;;3.83;1.70;;;18.80;99.90;;;;;;5055973;28;20125;-80
2023/09/25 11:03:35;;;;;;;2.45;1.63;;;19.90;99.90;;;;;;5045770;28;20036;-80
2023/09/25 11:06:00;;;;;;;4.88;1.70;;;18.90;99.90;;;;;;5039572;28;20091;-80
2023/09/25 11:08:26;;;;;;;5.72;1.80;;;19.00;99.90;;;;;;5039504;28;20041;-80
2023/09/25 11:10:52;;;;;;;4.15;1.80;;;19.10;99.90;;;;;;5055558;28;20108;-80
2023/09/25 11:13:20;;;;;;;2.70;1.48;;;19.20;99.90;;;;;;5055756;28;20047;-80
2023/09/25 11:15:46;;;;;;;3.40;1.70;;;19.30;99.90;;;;;;5057849;28;20060;-80
2023/09/25 11:18:11;;;;;;;4.03;1.73;;;19.40;99.90;;;;;;5040893;28;20025;-81
2023/09/25 11:20:38;;;;;;;3.63;1.85;;;19.50;99.90;;;;;;5040803;28;20062;-82
2023/09/25 11:23:06;;;;;;;3.95;1.70;;;19.50;99.90;;;;;;5056263;28;20044;-81
2023/09/25 11:25:43;;;;;;;4.68;1.80;;;19.60;99.90;;;;;;5043304;28;20060;-80
2023/09/25 11:28:11;;;;;;;3.17;1.80;;;19.70;99.90;;;;;;5053596;28;20036;-83
2023/09/25 11:30:37;;;;;;;2.95;1.70;;;19.80;99.90;;;;;;5051312;28;20058;-81
2023/09/25 11:33:07;;;;;;;4.18;1.80;;;19.90;99.90;;;;;;5059009;28;20029;-81
2023/09/25 11:35:37;;;;;;;5.57;1.80;;;20.10;99.90;;;;;;5041173;28;20572;-81
2023/09/25 11:38:12;;;;;;;2.60;1.60;;;20.30;99.90;;;;;;5056819;28;20120;-81
2023/09/25 11:40:39;;;;;;;3.47;1.42;;;20.40;99.90;;;;;;5044850;28;20040;-81
2023/09/25 11:43:06;;;;;;;2.50;1.42;;;20.40;99.90;;;;;;5042824;28;20610;-81
2023/09/25 11:45:33;;;;;;;5.38;2.17;;;20.40;99.90;;;;;;5038547;28;20055;-80
2023/09/25 11:48:00;;;;;;;3.53;1.77;;;20.30;99.90;;;;;;5025742;28;20078;-82
2023/09/25 11:50:26;;;;;;;3.42;1.70;;;20.30;99.90;;;;;;5039969;28;20435;-82
2023/09/25 11:52:52;;;;;;;3.15;1.63;;;20.40;99.90;;;;;;5041289;28;20042;-80
2023/09/25 11:55:19;;;;;;;4.22;1.70;;;20.30;99.90;;;;;;5034157;28;20116;-81
2023/09/25 11:57:46;;;;;;;4.03;1.63;;;20.30;99.90;;;;;;5058271;28;20617;-81
2023/09/25 12:00:15;;;;;;;3.13;1.58;;;20.40;99.90;;;;;;5056509;28;20076;-80
2023/09/25 12:02:43;;;;;;;3.45;1.58;;;20.80;99.90;;;;;;5055848;28;20083;-80
2023/09/25 12:05:09;;;;;;;3.08;1.73;;;21.10;99.90;;;;;;5056472;28;20052;-80
2023/09/25 12:07:36;;;;;;;4.60;2.03;;;21.30;99.90;;;;;;5045711;28;20045;-82
2023/09/25 12:10:06;;;;;;;5.18;1.92;;;21.50;99.90;;;;;;5040072;28;20088;-80
2023/09/25 12:12:33;;;;;;;3.47;1.92;;;21.50;99.90;;;;;;5041386;28;20118;-82
2023/09/25 12:14:59;;;;;;;4.45;2.17;;;21.50;99.90;;;;;;5039168;28;20458;-81
2023/09/25 12:17:25;;;;;;;5.85;1.95;;;21.50;99.90;;;;;;5060687;28;20063;-81
2023/09/25 12:19:52;;;;;;;4.88;2.05;;;21.50;99.90;;;;;;5038640;28;20104;-80
2023/09/25 12:22:18;;;;;;;4.60;1.85;;;21.50;99.90;;;;;;5056854;28;20041;-81
2023/09/25 12:24:44;;;;;;;5.20;2.20;;;21.60;99.90;;;;;;5039333;28;20460;-80
2023/09/25 12:27:10;;;;;;;3.55;1.80;;;21.60;99.90;;;;;;5054660;28;20106;-81
2023/09/25 12:29:35;;;;;;;8.25;2.10;;;21.60;99.90;;;;;;5055683;28;20400;-81
2023/09/25 12:32:01;;;;;;;4.03;1.90;;;21.50;99.90;;;;;;5041359;28;20033;-81
2023/09/25 12:34:26;;;;;;;3.08;1.67;;;21.40;99.90;;;;;;5058187;28;20037;-80
2023/09/25 12:36:53;;;;;;;5.10;2.03;;;21.30;99.90;;;;;;5038441;28;20036;-81
2023/09/25 12:39:20;;;;;;;4.70;2.00;;;21.20;99.90;;;;;;5055142;28;20044;-81
2023/09/25 12:41:46;;;;;;;3.45;1.70;;;21.10;99.90;;;;;;5038474;28;20033;-81
2023/09/25 12:44:11;;;;;;;4.55;2.03;;;21.00;99.90;;;;;;5042430;28;20059;-81